DLH78L EFHK-EDDH
Flight info
| Callsign | DLH78L |
|---|---|
| Flight time | 1h 43m |
| Altitude | 36000 |
| Route | NUNTO Y369 REKDO DCT KOSKA DCT GIMRU T503 MICOS N850 BOGMU BOGMU3P |
| Aircraft | A320/M-SDE3FGHIRWY/LB1 |
Departure
| Time | 2026-04-23 17:51 |
|---|---|
| Airport | Helsinki Vantaa Airport (EFHK) |
Arrival
| Time | 2026-04-23 19:34 |
|---|---|
| Airport | Hamburg Helmut Schmidt Airport (EDDH) |
| Time | Latitude | Longitude | Altitude | Speed | Heading |
|---|---|---|---|---|---|
| 2026-04-23 17:24 | 60.31644 | 24.95934 | 162 ft | 0 kts | 130° |
| 2026-04-23 17:24 | 60.31556 | 24.95820 | 162 ft | 0 kts | 137° |
| 2026-04-23 17:40 | 60.31569 | 24.95796 | 161 ft | 4 kts | 135° |
| 2026-04-23 17:40 | 60.31588 | 24.95757 | 161 ft | 4 kts | 135° |
| 2026-04-23 17:40 | 60.31608 | 24.95723 | 161 ft | 4 kts | 155° |
| 2026-04-23 17:41 | 60.31631 | 24.95707 | 161 ft | 4 kts | 202° |
| 2026-04-23 17:41 | 60.31669 | 24.95771 | 161 ft | 3 kts | 227° |
| 2026-04-23 17:41 | 60.31671 | 24.95776 | 161 ft | 0 kts | 227° |
| 2026-04-23 17:45 | 60.31666 | 24.95765 | 161 ft | 2 kts | 227° |
| 2026-04-23 17:45 | 60.31511 | 24.95487 | 161 ft | 19 kts | 229° |
| 2026-04-23 17:45 | 60.31419 | 24.95278 | 161 ft | 20 kts | 228° |
| 2026-04-23 17:46 | 60.31448 | 24.94913 | 161 ft | 11 kts | 258° |
| 2026-04-23 17:46 | 60.31405 | 24.94802 | 161 ft | 9 kts | 226° |
| 2026-04-23 17:46 | 60.31352 | 24.94688 | 161 ft | 14 kts | 227° |
| 2026-04-23 17:47 | 60.31272 | 24.94512 | 161 ft | 18 kts | 228° |
| 2026-04-23 17:47 | 60.31183 | 24.94315 | 161 ft | 19 kts | 226° |
| 2026-04-23 17:47 | 60.31033 | 24.93899 | 161 ft | 17 kts | 272° |
| 2026-04-23 17:48 | 60.31099 | 24.93719 | 161 ft | 13 kts | 321° |
| 2026-04-23 17:48 | 60.31152 | 24.93683 | 161 ft | 8 kts | 35° |
| 2026-04-23 17:48 | 60.31166 | 24.93714 | 161 ft | 0 kts | 48° |
| 2026-04-23 17:50 | 60.31494 | 24.94435 | 161 ft | 97 kts | 47° |
| 2026-04-23 17:50 | 60.32079 | 24.95722 | 162 ft | 150 kts | 47° |
| 2026-04-23 17:51 | 60.32838 | 24.97368 | 582 ft | 161 kts | 46° |
| 2026-04-23 17:51 | 60.33574 | 24.99058 | 1311 ft | 160 kts | 46° |
| 2026-04-23 17:51 | 60.35065 | 25.02385 | 2670 ft | 159 kts | 44° |
| 2026-04-23 17:52 | 60.35811 | 25.04026 | 3298 ft | 158 kts | 42° |
| 2026-04-23 17:52 | 60.37473 | 25.07639 | 4009 ft | 193 kts | 43° |
| 2026-04-23 17:52 | 60.38410 | 25.09703 | 4420 ft | 206 kts | 44° |
| 2026-04-23 17:53 | 60.41019 | 25.12850 | 5114 ft | 243 kts | 2° |
| 2026-04-23 17:53 | 60.42739 | 25.12811 | 5858 ft | 251 kts | 351° |
| 2026-04-23 17:53 | 60.44377 | 25.11537 | 6660 ft | 258 kts | 326° |
| 2026-04-23 17:54 | 60.45559 | 25.08792 | 7530 ft | 265 kts | 300° |
| 2026-04-23 17:54 | 60.45962 | 25.05118 | 8422 ft | 277 kts | 272° |
| 2026-04-23 17:54 | 60.44554 | 24.97595 | 10073 ft | 296 kts | 249° |
| 2026-04-23 17:55 | 60.42480 | 24.89731 | 10724 ft | 336 kts | 248° |
| 2026-04-23 17:55 | 60.41351 | 24.85521 | 11347 ft | 344 kts | 248° |
| 2026-04-23 17:55 | 60.40192 | 24.81240 | 12055 ft | 349 kts | 248° |
| 2026-04-23 17:56 | 60.39017 | 24.76909 | 12765 ft | 354 kts | 249° |
| 2026-04-23 17:56 | 60.36626 | 24.68078 | 14079 ft | 362 kts | 249° |
| 2026-04-23 17:56 | 60.35408 | 24.63588 | 14677 ft | 366 kts | 249° |
| 2026-04-23 17:57 | 60.34193 | 24.59110 | 15273 ft | 370 kts | 250° |
| 2026-04-23 17:57 | 60.32947 | 24.54528 | 15874 ft | 374 kts | 250° |
| 2026-04-23 17:57 | 60.30413 | 24.45235 | 17061 ft | 382 kts | 250° |
| 2026-04-23 17:58 | 60.29126 | 24.40522 | 17652 ft | 386 kts | 250° |
| 2026-04-23 17:58 | 60.27824 | 24.35756 | 18228 ft | 390 kts | 250° |
| 2026-04-23 17:58 | 60.26511 | 24.30954 | 18736 ft | 393 kts | 251° |
| 2026-04-23 17:58 | 60.25183 | 24.26112 | 19238 ft | 397 kts | 251° |
| 2026-04-23 17:59 | 60.23839 | 24.21242 | 19748 ft | 400 kts | 251° |
| 2026-04-23 17:59 | 60.22478 | 24.16332 | 20245 ft | 403 kts | 251° |
| 2026-04-23 17:59 | 60.21107 | 24.11392 | 20743 ft | 406 kts | 251° |
| 2026-04-23 17:59 | 60.19722 | 24.06415 | 21227 ft | 409 kts | 251° |
| 2026-04-23 18:00 | 60.18326 | 24.01402 | 21700 ft | 413 kts | 251° |
| 2026-04-23 18:00 | 60.16919 | 23.96358 | 22176 ft | 416 kts | 251° |
| 2026-04-23 18:00 | 60.15501 | 23.91277 | 22640 ft | 419 kts | 251° |
| 2026-04-23 18:00 | 60.14066 | 23.86154 | 23109 ft | 422 kts | 251° |
| 2026-04-23 18:01 | 60.12623 | 23.81012 | 23546 ft | 425 kts | 251° |
| 2026-04-23 18:01 | 60.11167 | 23.75833 | 23919 ft | 428 kts | 251° |
| 2026-04-23 18:01 | 60.09700 | 23.70625 | 24294 ft | 430 kts | 251° |
| 2026-04-23 18:01 | 60.08221 | 23.65386 | 24673 ft | 433 kts | 251° |
| 2026-04-23 18:02 | 60.07234 | 23.61896 | 24896 ft | 435 kts | 251° |
| 2026-04-23 18:02 | 60.05226 | 23.54828 | 25394 ft | 439 kts | 251° |
| 2026-04-23 18:02 | 60.03709 | 23.49511 | 25742 ft | 441 kts | 251° |
| 2026-04-23 18:02 | 60.02180 | 23.44164 | 26090 ft | 444 kts | 251° |
| 2026-04-23 18:03 | 60.00646 | 23.38795 | 26432 ft | 446 kts | 251° |
| 2026-04-23 18:03 | 59.99100 | 23.33397 | 26778 ft | 449 kts | 251° |
| 2026-04-23 18:03 | 59.97543 | 23.27968 | 27113 ft | 451 kts | 251° |
| 2026-04-23 18:03 | 59.95977 | 23.22522 | 27451 ft | 454 kts | 251° |
| 2026-04-23 18:04 | 59.94399 | 23.17043 | 27783 ft | 457 kts | 251° |
| 2026-04-23 18:04 | 59.92809 | 23.11541 | 28111 ft | 459 kts | 251° |
| 2026-04-23 18:04 | 59.91205 | 23.06014 | 28432 ft | 462 kts | 251° |
| 2026-04-23 18:04 | 59.89590 | 23.00460 | 28750 ft | 465 kts | 251° |
| 2026-04-23 18:05 | 59.87961 | 22.94879 | 29063 ft | 467 kts | 251° |
| 2026-04-23 18:05 | 59.86323 | 22.89281 | 29363 ft | 470 kts | 251° |
| 2026-04-23 18:05 | 59.84695 | 22.83725 | 29652 ft | 472 kts | 251° |
| 2026-04-23 18:05 | 59.83037 | 22.78070 | 29940 ft | 474 kts | 250° |
| 2026-04-23 18:06 | 59.81369 | 22.72394 | 30186 ft | 477 kts | 250° |
| 2026-04-23 18:06 | 59.79692 | 22.66704 | 30434 ft | 478 kts | 250° |
| 2026-04-23 18:06 | 59.78003 | 22.60990 | 30685 ft | 480 kts | 250° |
| 2026-04-23 18:06 | 59.76307 | 22.55276 | 30930 ft | 482 kts | 250° |
| 2026-04-23 18:07 | 59.74603 | 22.49558 | 31283 ft | 481 kts | 250° |
| 2026-04-23 18:07 | 59.72902 | 22.43866 | 31643 ft | 479 kts | 250° |
| 2026-04-23 18:07 | 59.71202 | 22.38181 | 31993 ft | 478 kts | 250° |
| 2026-04-23 18:07 | 59.69503 | 22.32519 | 32353 ft | 477 kts | 250° |
| 2026-04-23 18:08 | 59.68382 | 22.28781 | 32591 ft | 476 kts | 250° |
| 2026-04-23 18:08 | 59.66117 | 22.21233 | 32883 ft | 479 kts | 249° |
| 2026-04-23 18:08 | 59.64412 | 22.15561 | 33142 ft | 480 kts | 249° |
| 2026-04-23 18:08 | 59.62704 | 22.09897 | 33458 ft | 479 kts | 249° |
| 2026-04-23 18:09 | 59.60995 | 22.04253 | 33786 ft | 479 kts | 249° |
| 2026-04-23 18:09 | 59.59279 | 21.98618 | 34084 ft | 478 kts | 249° |
| 2026-04-23 18:09 | 59.57586 | 21.93078 | 34373 ft | 477 kts | 249° |
| 2026-04-23 18:09 | 59.55873 | 21.87477 | 34634 ft | 477 kts | 249° |
| 2026-04-23 18:10 | 59.54162 | 21.81888 | 34890 ft | 476 kts | 249° |
| 2026-04-23 18:10 | 59.52450 | 21.76299 | 35153 ft | 475 kts | 249° |
| 2026-04-23 18:10 | 59.50741 | 21.70735 | 35397 ft | 475 kts | 248° |
| 2026-04-23 18:10 | 59.49032 | 21.65179 | 35642 ft | 474 kts | 248° |
| 2026-04-23 18:11 | 59.47321 | 21.59630 | 35860 ft | 474 kts | 248° |
| 2026-04-23 18:11 | 59.43891 | 21.48561 | 35962 ft | 474 kts | 248° |
| 2026-04-23 18:12 | 59.40449 | 21.37535 | 35963 ft | 473 kts | 248° |
| 2026-04-23 18:12 | 59.37006 | 21.26558 | 35970 ft | 470 kts | 248° |
| 2026-04-23 18:13 | 59.33551 | 21.15552 | 35969 ft | 476 kts | 248° |
| 2026-04-23 18:13 | 59.30069 | 21.04518 | 35966 ft | 477 kts | 248° |
| 2026-04-23 18:14 | 59.26565 | 20.93492 | 35967 ft | 477 kts | 247° |
| 2026-04-23 18:14 | 59.23055 | 20.82488 | 35969 ft | 477 kts | 247° |
| 2026-04-23 18:15 | 59.19536 | 20.71498 | 35970 ft | 477 kts | 247° |
| 2026-04-23 18:15 | 59.15603 | 20.60911 | 35974 ft | 485 kts | 240° |
| 2026-04-23 18:16 | 59.11428 | 20.50593 | 35977 ft | 485 kts | 240° |
| 2026-04-23 18:16 | 59.07243 | 20.40286 | 35973 ft | 485 kts | 240° |
| 2026-04-23 18:17 | 59.02910 | 20.29619 | 35975 ft | 485 kts | 240° |
| 2026-04-23 18:17 | 58.98722 | 20.19447 | 35971 ft | 486 kts | 240° |
| 2026-04-23 18:18 | 58.94463 | 20.09259 | 35976 ft | 487 kts | 239° |
| 2026-04-23 18:18 | 58.90187 | 19.99086 | 35982 ft | 487 kts | 239° |
| 2026-04-23 18:19 | 58.85915 | 19.88926 | 35988 ft | 487 kts | 239° |
| 2026-04-23 18:19 | 58.81637 | 19.78773 | 35999 ft | 487 kts | 239° |
| 2026-04-23 18:20 | 58.77345 | 19.68659 | 36001 ft | 487 kts | 239° |
| 2026-04-23 18:20 | 58.73047 | 19.58578 | 36001 ft | 487 kts | 239° |
| 2026-04-23 18:21 | 58.68752 | 19.48519 | 36013 ft | 486 kts | 239° |
| 2026-04-23 18:21 | 58.64450 | 19.38490 | 36009 ft | 486 kts | 238° |
| 2026-04-23 18:22 | 58.60135 | 19.28502 | 36007 ft | 486 kts | 238° |
| 2026-04-23 18:22 | 58.55815 | 19.18529 | 36011 ft | 486 kts | 238° |
| 2026-04-23 18:23 | 58.49354 | 19.03695 | 36015 ft | 485 kts | 238° |
| 2026-04-23 18:24 | 58.42864 | 18.88859 | 36018 ft | 485 kts | 238° |
| 2026-04-23 18:25 | 58.37081 | 18.75764 | 36024 ft | 485 kts | 238° |
| 2026-04-23 18:25 | 58.32739 | 18.65963 | 36025 ft | 484 kts | 237° |
| 2026-04-23 18:26 | 58.28390 | 18.56186 | 36026 ft | 484 kts | 237° |
| 2026-04-23 18:26 | 58.24043 | 18.46441 | 36031 ft | 483 kts | 237° |
| 2026-04-23 18:27 | 58.19684 | 18.36734 | 36030 ft | 483 kts | 237° |
| 2026-04-23 18:27 | 58.15325 | 18.27052 | 36035 ft | 483 kts | 237° |
| 2026-04-23 18:28 | 58.10963 | 18.17400 | 36037 ft | 483 kts | 237° |
| 2026-04-23 18:28 | 58.06582 | 18.07774 | 36035 ft | 482 kts | 237° |
| 2026-04-23 18:29 | 58.02201 | 17.98180 | 36040 ft | 482 kts | 237° |
| 2026-04-23 18:29 | 57.97821 | 17.88620 | 36046 ft | 482 kts | 237° |
| 2026-04-23 18:30 | 57.93435 | 17.79082 | 36045 ft | 482 kts | 237° |
| 2026-04-23 18:30 | 57.89041 | 17.69560 | 36046 ft | 482 kts | 237° |
| 2026-04-23 18:31 | 57.84642 | 17.60069 | 36046 ft | 481 kts | 236° |
| 2026-04-23 18:31 | 57.80237 | 17.50608 | 36043 ft | 481 kts | 236° |
| 2026-04-23 18:32 | 57.75832 | 17.41173 | 36048 ft | 481 kts | 236° |
| 2026-04-23 18:32 | 57.71444 | 17.31807 | 36048 ft | 481 kts | 236° |
| 2026-04-23 18:33 | 57.66995 | 17.22367 | 36054 ft | 480 kts | 236° |
| 2026-04-23 18:33 | 57.62610 | 17.13083 | 36057 ft | 480 kts | 236° |
| 2026-04-23 18:34 | 57.58183 | 17.03776 | 36055 ft | 479 kts | 236° |
| 2026-04-23 18:34 | 57.53758 | 16.94506 | 36060 ft | 479 kts | 236° |
| 2026-04-23 18:35 | 57.49335 | 16.85260 | 36062 ft | 478 kts | 236° |
| 2026-04-23 18:35 | 57.44908 | 16.76038 | 36065 ft | 478 kts | 235° |
| 2026-04-23 18:36 | 57.40476 | 16.66861 | 36070 ft | 477 kts | 235° |
| 2026-04-23 18:36 | 57.36049 | 16.57705 | 36074 ft | 477 kts | 235° |
| 2026-04-23 18:37 | 57.31618 | 16.48582 | 36066 ft | 476 kts | 235° |
| 2026-04-23 18:37 | 57.27177 | 16.39499 | 36062 ft | 476 kts | 235° |
| 2026-04-23 18:38 | 57.22736 | 16.30450 | 36064 ft | 475 kts | 235° |
| 2026-04-23 18:38 | 57.18296 | 16.21425 | 36066 ft | 474 kts | 234° |
| 2026-04-23 18:39 | 57.13858 | 16.12441 | 36072 ft | 474 kts | 234° |
| 2026-04-23 18:39 | 57.09449 | 16.03548 | 36071 ft | 473 kts | 234° |
| 2026-04-23 18:40 | 57.05012 | 15.94629 | 36070 ft | 472 kts | 234° |
| 2026-04-23 18:40 | 57.00571 | 15.85750 | 36075 ft | 472 kts | 234° |
| 2026-04-23 18:41 | 56.96137 | 15.76891 | 36074 ft | 471 kts | 234° |
| 2026-04-23 18:41 | 56.91701 | 15.68068 | 36078 ft | 470 kts | 234° |
| 2026-04-23 18:42 | 56.87265 | 15.59288 | 36075 ft | 470 kts | 234° |
| 2026-04-23 18:42 | 56.82825 | 15.50534 | 36078 ft | 469 kts | 234° |
| 2026-04-23 18:43 | 56.78384 | 15.41819 | 36076 ft | 469 kts | 234° |
| 2026-04-23 18:43 | 56.73945 | 15.33123 | 36077 ft | 468 kts | 233° |
| 2026-04-23 18:44 | 56.69506 | 15.24460 | 36075 ft | 468 kts | 233° |
| 2026-04-23 18:44 | 56.65066 | 15.15825 | 36076 ft | 467 kts | 233° |
| 2026-04-23 18:45 | 56.60650 | 15.07282 | 36074 ft | 467 kts | 233° |
| 2026-04-23 18:45 | 56.56203 | 14.98724 | 36071 ft | 466 kts | 233° |
| 2026-04-23 18:46 | 56.51752 | 14.90186 | 36069 ft | 466 kts | 233° |
| 2026-04-23 18:46 | 56.47310 | 14.81666 | 36065 ft | 465 kts | 233° |
| 2026-04-23 18:47 | 56.42864 | 14.73172 | 36069 ft | 465 kts | 233° |
| 2026-04-23 18:47 | 56.38406 | 14.64706 | 36073 ft | 465 kts | 233° |
| 2026-04-23 18:48 | 56.33950 | 14.56261 | 36081 ft | 465 kts | 232° |
| 2026-04-23 18:48 | 56.29488 | 14.47846 | 36073 ft | 465 kts | 232° |
| 2026-04-23 18:49 | 56.25018 | 14.39447 | 36074 ft | 465 kts | 232° |
| 2026-04-23 18:49 | 56.20601 | 14.31156 | 36074 ft | 465 kts | 232° |
| 2026-04-23 18:50 | 56.16877 | 14.24199 | 36071 ft | 465 kts | 232° |
| 2026-04-23 18:50 | 56.11624 | 14.14453 | 36072 ft | 465 kts | 232° |
| 2026-04-23 18:51 | 56.07125 | 14.06127 | 36067 ft | 465 kts | 232° |
| 2026-04-23 18:51 | 56.02659 | 13.97862 | 36066 ft | 465 kts | 232° |
| 2026-04-23 18:52 | 55.98151 | 13.89554 | 36065 ft | 465 kts | 231° |
| 2026-04-23 18:52 | 55.93631 | 13.81274 | 36071 ft | 466 kts | 231° |
| 2026-04-23 18:53 | 55.89104 | 13.73009 | 36077 ft | 466 kts | 231° |
| 2026-04-23 18:53 | 55.84569 | 13.64750 | 36084 ft | 466 kts | 231° |
| 2026-04-23 18:54 | 55.80031 | 13.56512 | 36098 ft | 466 kts | 231° |
| 2026-04-23 18:54 | 55.75485 | 13.48292 | 36098 ft | 466 kts | 231° |
| 2026-04-23 18:55 | 55.70934 | 13.40087 | 36098 ft | 466 kts | 231° |
| 2026-04-23 18:55 | 55.66374 | 13.31910 | 36097 ft | 466 kts | 231° |
| 2026-04-23 18:56 | 55.62579 | 13.25136 | 36095 ft | 466 kts | 230° |
| 2026-04-23 18:56 | 55.57237 | 13.15621 | 36076 ft | 466 kts | 230° |
| 2026-04-23 18:57 | 55.52709 | 13.07580 | 36084 ft | 466 kts | 230° |
| 2026-04-23 18:57 | 55.48138 | 12.99475 | 36093 ft | 466 kts | 230° |
| 2026-04-23 18:58 | 55.43563 | 12.91396 | 36105 ft | 466 kts | 230° |
| 2026-04-23 18:58 | 55.38974 | 12.83351 | 36121 ft | 466 kts | 230° |
| 2026-04-23 18:59 | 55.34382 | 12.75317 | 36041 ft | 466 kts | 230° |
| 2026-04-23 18:59 | 55.32116 | 12.71352 | 35789 ft | 466 kts | 230° |
| 2026-04-23 18:59 | 55.29821 | 12.67341 | 35537 ft | 466 kts | 230° |
| 2026-04-23 18:59 | 55.27520 | 12.63322 | 35288 ft | 467 kts | 230° |
| 2026-04-23 19:00 | 55.25213 | 12.59304 | 35031 ft | 468 kts | 229° |
| 2026-04-23 19:00 | 55.22897 | 12.55281 | 34796 ft | 469 kts | 229° |
| 2026-04-23 19:00 | 55.20576 | 12.51263 | 34550 ft | 470 kts | 229° |
| 2026-04-23 19:00 | 55.18249 | 12.47245 | 34313 ft | 471 kts | 229° |
| 2026-04-23 19:01 | 55.15914 | 12.43220 | 34066 ft | 471 kts | 229° |
| 2026-04-23 19:01 | 55.13576 | 12.39192 | 33792 ft | 472 kts | 229° |
| 2026-04-23 19:01 | 55.11238 | 12.35171 | 33520 ft | 472 kts | 229° |
| 2026-04-23 19:01 | 55.08891 | 12.31146 | 33251 ft | 473 kts | 229° |
| 2026-04-23 19:02 | 55.07333 | 12.28477 | 33071 ft | 473 kts | 229° |
| 2026-04-23 19:02 | 55.04190 | 12.23098 | 32716 ft | 473 kts | 229° |
| 2026-04-23 19:02 | 55.01834 | 12.19078 | 32459 ft | 474 kts | 229° |
| 2026-04-23 19:02 | 54.99481 | 12.15065 | 32202 ft | 474 kts | 229° |
| 2026-04-23 19:03 | 54.97122 | 12.11048 | 31942 ft | 474 kts | 229° |
| 2026-04-23 19:03 | 54.94761 | 12.07036 | 31687 ft | 475 kts | 228° |
| 2026-04-23 19:03 | 54.92397 | 12.03024 | 31433 ft | 475 kts | 229° |
| 2026-04-23 19:03 | 54.90029 | 11.99012 | 31191 ft | 476 kts | 228° |
| 2026-04-23 19:04 | 54.87659 | 11.95002 | 30942 ft | 476 kts | 228° |
| 2026-04-23 19:04 | 54.85287 | 11.90996 | 30691 ft | 476 kts | 228° |
| 2026-04-23 19:04 | 54.82908 | 11.86990 | 30454 ft | 477 kts | 228° |
| 2026-04-23 19:04 | 54.80522 | 11.82983 | 30211 ft | 477 kts | 228° |
| 2026-04-23 19:05 | 54.78169 | 11.79040 | 30001 ft | 477 kts | 228° |
| 2026-04-23 19:05 | 54.75780 | 11.75037 | 29827 ft | 478 kts | 227° |
| 2026-04-23 19:05 | 54.73390 | 11.71036 | 29655 ft | 478 kts | 227° |
| 2026-04-23 19:05 | 54.70998 | 11.67037 | 29491 ft | 479 kts | 227° |
| 2026-04-23 19:06 | 54.68598 | 11.63038 | 29322 ft | 479 kts | 227° |
| 2026-04-23 19:06 | 54.66194 | 11.59044 | 29159 ft | 479 kts | 227° |
| 2026-04-23 19:06 | 54.63789 | 11.55057 | 28998 ft | 480 kts | 227° |
| 2026-04-23 19:06 | 54.61406 | 11.51111 | 28825 ft | 467 kts | 227° |
| 2026-04-23 19:07 | 54.59075 | 11.47257 | 28663 ft | 467 kts | 227° |
| 2026-04-23 19:07 | 54.56709 | 11.43328 | 28496 ft | 477 kts | 227° |
| 2026-04-23 19:07 | 54.54309 | 11.39348 | 28345 ft | 480 kts | 227° |
| 2026-04-23 19:07 | 54.51909 | 11.35362 | 28187 ft | 479 kts | 229° |
| 2026-04-23 19:08 | 54.49686 | 11.31126 | 28024 ft | 476 kts | 232° |
| 2026-04-23 19:08 | 54.47520 | 11.26832 | 27796 ft | 474 kts | 233° |
| 2026-04-23 19:08 | 54.45438 | 11.22640 | 27546 ft | 472 kts | 233° |
| 2026-04-23 19:08 | 54.43318 | 11.18338 | 27109 ft | 471 kts | 233° |
| 2026-04-23 19:09 | 54.41192 | 11.14023 | 26100 ft | 473 kts | 233° |
| 2026-04-23 19:09 | 54.39084 | 11.09776 | 25686 ft | 461 kts | 233° |
| 2026-04-23 19:09 | 54.37012 | 11.05631 | 25131 ft | 454 kts | 233° |
| 2026-04-23 19:09 | 54.34963 | 11.01550 | 24534 ft | 449 kts | 233° |
| 2026-04-23 19:10 | 54.32933 | 10.97517 | 23929 ft | 445 kts | 233° |
| 2026-04-23 19:10 | 54.30921 | 10.93523 | 23251 ft | 441 kts | 233° |
| 2026-04-23 19:10 | 54.28928 | 10.89573 | 22588 ft | 437 kts | 233° |
| 2026-04-23 19:10 | 54.26948 | 10.85657 | 21944 ft | 433 kts | 232° |
| 2026-04-23 19:11 | 54.24985 | 10.81785 | 21337 ft | 429 kts | 232° |
| 2026-04-23 19:11 | 54.23035 | 10.77946 | 20733 ft | 425 kts | 232° |
| 2026-04-23 19:11 | 54.21106 | 10.74143 | 20136 ft | 422 kts | 232° |
| 2026-04-23 19:11 | 54.19194 | 10.70371 | 19566 ft | 418 kts | 232° |
| 2026-04-23 19:12 | 54.17935 | 10.67889 | 19187 ft | 416 kts | 232° |
| 2026-04-23 19:12 | 54.15408 | 10.62915 | 18451 ft | 412 kts | 232° |
| 2026-04-23 19:12 | 54.13535 | 10.59243 | 17847 ft | 409 kts | 232° |
| 2026-04-23 19:12 | 54.11680 | 10.55623 | 17512 ft | 400 kts | 232° |
| 2026-04-23 19:13 | 54.09865 | 10.52089 | 17088 ft | 394 kts | 232° |
| 2026-04-23 19:13 | 54.08068 | 10.48595 | 16574 ft | 391 kts | 232° |
| 2026-04-23 19:13 | 54.06281 | 10.45120 | 16068 ft | 388 kts | 232° |
| 2026-04-23 19:13 | 54.04533 | 10.41718 | 15578 ft | 386 kts | 232° |
| 2026-04-23 19:14 | 54.02768 | 10.38288 | 15092 ft | 384 kts | 232° |
| 2026-04-23 19:14 | 54.01012 | 10.34885 | 14622 ft | 382 kts | 232° |
| 2026-04-23 19:14 | 53.99266 | 10.31508 | 14143 ft | 380 kts | 232° |
| 2026-04-23 19:14 | 53.97653 | 10.28122 | 13639 ft | 373 kts | 242° |
| 2026-04-23 19:15 | 53.96916 | 10.25455 | 13312 ft | 365 kts | 256° |
| 2026-04-23 19:15 | 53.96389 | 10.21306 | 12909 ft | 355 kts | 264° |
| 2026-04-23 19:15 | 53.95982 | 10.17259 | 12783 ft | 341 kts | 264° |
| 2026-04-23 19:15 | 53.95591 | 10.13360 | 12654 ft | 329 kts | 264° |
| 2026-04-23 19:16 | 53.95207 | 10.09600 | 12527 ft | 318 kts | 264° |
| 2026-04-23 19:16 | 53.94835 | 10.06014 | 12398 ft | 308 kts | 264° |
| 2026-04-23 19:16 | 53.94463 | 10.02487 | 12243 ft | 299 kts | 264° |
| 2026-04-23 19:17 | 53.93728 | 9.95608 | 11638 ft | 294 kts | 264° |
| 2026-04-23 19:17 | 53.93360 | 9.92210 | 11322 ft | 292 kts | 264° |
| 2026-04-23 19:17 | 53.92992 | 9.88844 | 10992 ft | 290 kts | 264° |
| 2026-04-23 19:17 | 53.92625 | 9.85490 | 10671 ft | 288 kts | 264° |
| 2026-04-23 19:18 | 53.92258 | 9.82179 | 10462 ft | 281 kts | 264° |
| 2026-04-23 19:18 | 53.91896 | 9.78974 | 10344 ft | 272 kts | 264° |
| 2026-04-23 19:18 | 53.91538 | 9.75880 | 10246 ft | 262 kts | 264° |
| 2026-04-23 19:18 | 53.91187 | 9.72915 | 10256 ft | 254 kts | 264° |
| 2026-04-23 19:19 | 53.90495 | 9.67221 | 10252 ft | 243 kts | 264° |
| 2026-04-23 19:19 | 53.90149 | 9.64414 | 10253 ft | 243 kts | 264° |
| 2026-04-23 19:20 | 53.88318 | 9.59665 | 9739 ft | 260 kts | 211° |
| 2026-04-23 19:20 | 53.86554 | 9.58926 | 9399 ft | 267 kts | 179° |
| 2026-04-23 19:20 | 53.84772 | 9.59714 | 9041 ft | 267 kts | 148° |
| 2026-04-23 19:20 | 53.83450 | 9.61820 | 8683 ft | 259 kts | 116° |
| 2026-04-23 19:21 | 53.82931 | 9.64590 | 8338 ft | 247 kts | 84° |
| 2026-04-23 19:21 | 53.83288 | 9.70278 | 7640 ft | 242 kts | 74° |
| 2026-04-23 19:21 | 53.83543 | 9.73088 | 7343 ft | 241 kts | 74° |
| 2026-04-23 19:22 | 53.83796 | 9.75880 | 7252 ft | 240 kts | 74° |
| 2026-04-23 19:22 | 53.84052 | 9.78684 | 7255 ft | 242 kts | 74° |
| 2026-04-23 19:22 | 53.84569 | 9.84310 | 7251 ft | 242 kts | 74° |
| 2026-04-23 19:23 | 53.84690 | 9.87167 | 7252 ft | 248 kts | 89° |
| 2026-04-23 19:23 | 53.84455 | 9.90080 | 7250 ft | 251 kts | 94° |
| 2026-04-23 19:23 | 53.84151 | 9.92996 | 7254 ft | 252 kts | 94° |
| 2026-04-23 19:24 | 53.83526 | 9.98810 | 6998 ft | 250 kts | 94° |
| 2026-04-23 19:24 | 53.83215 | 10.01703 | 6680 ft | 249 kts | 94° |
| 2026-04-23 19:24 | 53.82588 | 10.07452 | 6064 ft | 247 kts | 94° |
| 2026-04-23 19:25 | 53.81966 | 10.13134 | 5446 ft | 244 kts | 94° |
| 2026-04-23 19:25 | 53.81360 | 10.18756 | 4859 ft | 241 kts | 94° |
| 2026-04-23 19:26 | 53.81338 | 10.24167 | 4808 ft | 223 kts | 54° |
| 2026-04-23 19:26 | 53.82336 | 10.26035 | 4811 ft | 212 kts | 29° |
| 2026-04-23 19:27 | 53.84828 | 10.28606 | 4795 ft | 211 kts | 24° |
| 2026-04-23 19:27 | 53.88010 | 10.33457 | 4032 ft | 226 kts | 75° |
| 2026-04-23 19:28 | 53.86798 | 10.38412 | 3991 ft | 248 kts | 142° |
| 2026-04-23 19:28 | 53.83553 | 10.39386 | 3991 ft | 242 kts | 205° |
| 2026-04-23 19:29 | 53.82182 | 10.37910 | 3990 ft | 231 kts | 233° |
| 2026-04-23 19:29 | 53.80146 | 10.33753 | 3921 ft | 229 kts | 237° |
| 2026-04-23 19:30 | 53.78124 | 10.29589 | 3792 ft | 229 kts | 237° |
| 2026-04-23 19:30 | 53.77109 | 10.27509 | 3742 ft | 229 kts | 237° |
| 2026-04-23 19:30 | 53.75150 | 10.23500 | 3616 ft | 218 kts | 237° |
| 2026-04-23 19:31 | 53.74188 | 10.21529 | 3368 ft | 217 kts | 237° |
| 2026-04-23 19:31 | 53.73227 | 10.19564 | 3084 ft | 218 kts | 237° |
| 2026-04-23 19:31 | 53.72260 | 10.17588 | 2795 ft | 218 kts | 237° |
| 2026-04-23 19:31 | 53.71290 | 10.15608 | 2500 ft | 220 kts | 237° |
| 2026-04-23 19:32 | 53.70313 | 10.13616 | 2196 ft | 220 kts | 237° |
| 2026-04-23 19:32 | 53.69356 | 10.11670 | 1897 ft | 211 kts | 237° |
| 2026-04-23 19:32 | 53.68444 | 10.09818 | 1621 ft | 199 kts | 237° |
| 2026-04-23 19:32 | 53.67599 | 10.08100 | 1355 ft | 184 kts | 237° |
| 2026-04-23 19:33 | 53.66820 | 10.06519 | 1114 ft | 171 kts | 238° |
| 2026-04-23 19:33 | 53.66106 | 10.05068 | 863 ft | 152 kts | 236° |
| 2026-04-23 19:33 | 53.64869 | 10.02545 | 407 ft | 133 kts | 236° |
| 2026-04-23 19:34 | 53.64280 | 10.01346 | 263 ft | 132 kts | 234° |
| 2026-04-23 19:34 | 53.63700 | 10.00175 | 110 ft | 128 kts | 234° |
| 2026-04-23 19:34 | 53.62878 | 9.98530 | 45 ft | 29 kts | 201° |
| 2026-04-23 19:35 | 53.62739 | 9.98475 | 46 ft | 14 kts | 184° |
| 2026-04-23 19:35 | 53.62682 | 9.98516 | 46 ft | 8 kts | 78° |
| 2026-04-23 19:35 | 53.62712 | 9.98596 | 46 ft | 12 kts | 46° |
| 2026-04-23 19:35 | 53.62780 | 9.98735 | 45 ft | 16 kts | 50° |
| 2026-04-23 19:36 | 53.62847 | 9.98872 | 47 ft | 14 kts | 50° |
| 2026-04-23 19:36 | 53.62907 | 9.98995 | 47 ft | 13 kts | 50° |
| 2026-04-23 19:36 | 53.62961 | 9.99103 | 47 ft | 11 kts | 50° |
| 2026-04-23 19:36 | 53.63009 | 9.99198 | 48 ft | 10 kts | 50° |
| 2026-04-23 19:37 | 53.63052 | 9.99285 | 48 ft | 9 kts | 54° |
| 2026-04-23 19:37 | 53.63081 | 9.99357 | 48 ft | 0 kts | 56° |
| 2026-04-23 19:38 | 53.63087 | 9.99371 | 45 ft | 6 kts | 56° |
| 2026-04-23 19:38 | 53.63127 | 9.99472 | 48 ft | 11 kts | 56° |
| 2026-04-23 19:38 | 53.63172 | 9.99573 | 48 ft | 11 kts | 53° |
| 2026-04-23 19:39 | 53.63226 | 9.99678 | 48 ft | 16 kts | 45° |
| 2026-04-23 19:39 | 53.63317 | 9.99841 | 50 ft | 20 kts | 50° |
| 2026-04-23 19:39 | 53.63399 | 10.00010 | 51 ft | 17 kts | 51° |
| 2026-04-23 19:39 | 53.63431 | 10.00130 | 51 ft | 10 kts | 90° |
| 2026-04-23 19:40 | 53.63411 | 10.00233 | 49 ft | 9 kts | 102° |
| 2026-04-23 19:40 | 53.63414 | 10.00321 | 51 ft | 6 kts | 84° |